Bentonsport, Iowa
Current Conditions -  °F | °C
As of 7:15 PM on Saturday 25 Oct 2014 (Local Time) from KFFL Reporting Station
Clear Clear  
Wind Chill: 57°   Ceiling: Unl
Heat Index: 57°   Visibility: NA
Dew Point: 37°   Wind: 6mph
Humidity: 48%   Direction: 340°NNW
Pressure: 30.05"   Gusts: NA
Location:  40.7687°N, 92.0788°W
Report Text: KFFL 260015Z AUTO 34005KT CLR 14/03 A3005 RMK AO2
Loading
Personal Weather Stations






























Interactive Weather Map
Tropical Storm Tracking
New forecast layout! Learn more

10-Day Weather Forecast

Advertisements
Track Severe Weather on mobile